createdAt,value
2019-02-06T00:00:58.885Z,2.30
2019-02-06T00:03:30.523Z,2.30
2019-02-06T00:06:01.944Z,2.40
2019-02-06T00:08:33.484Z,2.40
2019-02-06T00:11:05.240Z,2.40
2019-02-06T00:13:37.078Z,2.40
2019-02-06T00:16:08.526Z,2.40
2019-02-06T00:18:40.061Z,2.40
2019-02-06T00:21:11.473Z,2.40
2019-02-06T00:23:42.780Z,2.40
2019-02-06T00:26:14.605Z,2.40
2019-02-06T00:28:47.000Z,2.40
2019-02-06T00:31:18.550Z,2.40
2019-02-06T00:33:49.933Z,2.50
2019-02-06T00:36:21.299Z,2.40
2019-02-06T00:38:53.081Z,2.40
2019-02-06T00:41:24.428Z,2.30
2019-02-06T00:43:55.833Z,2.30
2019-02-06T00:46:27.260Z,2.30
2019-02-06T00:48:58.677Z,2.30
2019-02-06T00:51:30.252Z,2.30
2019-02-06T00:54:01.651Z,2.30
2019-02-06T00:56:32.977Z,2.30
2019-02-06T00:59:04.487Z,2.30
2019-02-06T01:01:35.978Z,2.20
2019-02-06T01:04:08.320Z,2.20
2019-02-06T01:06:39.888Z,2.20
2019-02-06T01:09:11.614Z,2.20
2019-02-06T01:11:42.964Z,2.20
2019-02-06T01:14:14.340Z,2.20
2019-02-06T01:16:45.866Z,2.10
2019-02-06T01:19:18.291Z,2.10
2019-02-06T01:21:49.628Z,2.10
2019-02-06T01:24:20.980Z,2.00
2019-02-06T01:26:52.328Z,2.00
2019-02-06T01:29:23.724Z,2.00
2019-02-06T01:31:55.548Z,2.00
2019-02-06T01:34:26.916Z,2.00
2019-02-06T01:36:58.269Z,2.00
2019-02-06T01:39:29.635Z,2.00
2019-02-06T01:42:01.002Z,2.00
2019-02-06T01:44:32.668Z,1.90
2019-02-06T01:47:05.011Z,1.90
2019-02-06T01:49:36.457Z,2.00
2019-02-06T01:52:07.814Z,2.00
2019-02-06T01:54:39.297Z,2.00
2019-02-06T01:57:11.045Z,2.00
2019-02-06T01:59:42.450Z,2.00
2019-02-06T02:02:14.055Z,2.00
2019-02-06T02:04:46.464Z,2.00
2019-02-06T02:07:17.896Z,2.00
2019-02-06T02:09:49.284Z,2.00
2019-02-06T02:12:20.644Z,2.00
2019-02-06T02:14:52.052Z,2.00
2019-02-06T02:17:23.444Z,2.00
2019-02-06T02:19:55.157Z,2.00
2019-02-06T02:22:26.516Z,2.00
2019-02-06T02:24:57.892Z,1.90
2019-02-06T02:27:29.241Z,2.00
2019-02-06T02:30:00.649Z,2.00
2019-02-06T02:32:32.262Z,2.00
2019-02-06T02:35:04.038Z,2.00
2019-02-06T02:37:35.447Z,2.00
2019-02-06T02:40:07.726Z,2.00
2019-02-06T02:42:39.161Z,2.00
2019-02-06T02:45:12.289Z,2.00
2019-02-06T02:47:43.771Z,2.00
2019-02-06T02:50:15.152Z,2.00
2019-02-06T02:52:46.524Z,2.00
2019-02-06T02:55:17.873Z,2.00
2019-02-06T02:57:49.298Z,2.00
2019-02-06T03:00:23.209Z,2.00
2019-02-06T03:03:04.166Z,2.10
2019-02-06T03:05:36.516Z,2.10
2019-02-06T03:08:07.967Z,2.10
2019-02-06T03:10:39.381Z,2.10
2019-02-06T03:13:10.758Z,2.10
2019-02-06T03:15:42.214Z,2.10
2019-02-06T03:18:13.611Z,2.10
2019-02-06T03:20:45.036Z,2.10
2019-02-06T03:23:16.445Z,2.10
2019-02-06T03:25:48.127Z,2.20
2019-02-06T03:28:19.489Z,2.10
2019-02-06T03:30:50.915Z,2.10
2019-02-06T03:33:22.389Z,2.10
2019-02-06T03:35:53.771Z,2.10
2019-02-06T03:38:25.507Z,2.10
2019-02-06T03:40:56.909Z,2.10
2019-02-06T03:43:28.256Z,2.10
2019-02-06T03:45:59.673Z,2.00
2019-02-06T03:48:31.029Z,2.00
2019-02-06T03:51:02.446Z,2.00
2019-02-06T03:53:33.817Z,2.00
2019-02-06T03:56:05.399Z,2.10
2019-02-06T03:58:37.721Z,2.10
2019-02-06T04:01:11.364Z,2.10
2019-02-06T04:03:42.192Z,2.10
2019-02-06T04:06:13.573Z,2.10
2019-02-06T04:08:44.909Z,2.20
2019-02-06T04:11:16.317Z,2.20
2019-02-06T04:13:47.688Z,2.30
2019-02-06T04:16:19.081Z,2.30
2019-02-06T04:18:50.537Z,2.30
2019-02-06T04:21:21.868Z,2.40
2019-02-06T04:23:53.322Z,2.40
2019-02-06T04:26:24.710Z,2.40
2019-02-06T04:28:56.073Z,2.50
2019-02-06T04:31:27.407Z,2.50
2019-02-06T04:33:58.700Z,2.50
2019-02-06T04:36:30.137Z,2.50
2019-02-06T04:39:01.426Z,2.50
2019-02-06T04:41:32.751Z,2.60
2019-02-06T04:44:04.239Z,2.60
2019-02-06T04:46:35.588Z,2.60
2019-02-06T04:49:07.128Z,2.50
2019-02-06T04:51:38.490Z,2.50
2019-02-06T04:54:09.966Z,2.50
2019-02-06T04:56:42.409Z,2.50
2019-02-06T04:59:13.862Z,2.50
2019-02-06T05:01:45.163Z,2.50
2019-02-06T05:04:16.534Z,2.50
2019-02-06T05:06:47.936Z,2.50
2019-02-06T05:09:19.598Z,2.40
2019-02-06T05:11:50.855Z,2.40
2019-02-06T05:14:22.213Z,2.40
2019-02-06T05:16:53.705Z,2.30
2019-02-06T05:19:25.077Z,2.40
2019-02-06T05:21:56.466Z,2.30
2019-02-06T05:24:27.814Z,2.30
2019-02-06T05:26:59.251Z,2.30
2019-02-06T05:29:30.634Z,2.30
2019-02-06T05:32:02.205Z,2.30
2019-02-06T05:34:33.544Z,2.30
2019-02-06T05:37:05.436Z,2.30
2019-02-06T05:39:36.729Z,2.30
2019-02-06T05:42:08.224Z,2.30
2019-02-06T05:44:39.492Z,2.30
2019-02-06T05:47:10.925Z,2.30
2019-02-06T05:49:42.538Z,2.30
2019-02-06T05:52:13.981Z,2.30
2019-02-06T05:54:45.348Z,2.30
2019-02-06T05:57:17.701Z,2.30
2019-02-06T05:59:49.301Z,2.30
2019-02-06T06:02:20.747Z,2.30
2019-02-06T06:04:52.189Z,2.30
2019-02-06T06:07:23.598Z,2.40
2019-02-06T06:09:55.042Z,2.40
2019-02-06T06:12:26.476Z,2.40
2019-02-06T06:14:57.832Z,2.40
2019-02-06T06:17:29.235Z,2.50
2019-02-06T06:20:00.646Z,2.50
2019-02-06T06:22:32.315Z,2.50
2019-02-06T06:25:04.332Z,2.50
2019-02-06T06:27:35.755Z,2.50
2019-02-06T06:30:09.531Z,2.40
2019-02-06T06:32:40.997Z,2.40
2019-02-06T06:35:12.414Z,2.50
2019-02-06T06:37:44.001Z,2.50
2019-02-06T06:40:20.406Z,2.40
2019-02-06T06:42:52.090Z,2.40
2019-02-06T06:45:23.828Z,2.40
2019-02-06T06:47:55.331Z,2.40
2019-02-06T06:50:26.761Z,2.40
2019-02-06T06:52:58.150Z,2.30
2019-02-06T06:55:30.948Z,2.30
2019-02-06T06:58:02.491Z,2.20
2019-02-06T07:00:35.092Z,2.20
2019-02-06T07:03:06.604Z,2.20
2019-02-06T07:05:37.918Z,2.20
2019-02-06T07:08:13.360Z,2.20
2019-02-06T07:10:42.779Z,2.20
2019-02-06T07:13:14.186Z,2.20
2019-02-06T07:15:45.618Z,2.20
2019-02-06T07:18:17.033Z,2.30
2019-02-06T07:20:48.689Z,2.30
2019-02-06T07:23:20.129Z,2.40
2019-02-06T07:25:51.576Z,2.30
2019-02-06T07:28:22.958Z,2.40
2019-02-06T07:30:54.314Z,2.30
2019-02-06T07:33:26.073Z,2.30
2019-02-06T07:35:57.629Z,2.20
2019-02-06T07:38:29.063Z,2.30
2019-02-06T07:41:00.832Z,2.30
2019-02-06T07:43:32.381Z,2.30
2019-02-06T07:46:04.520Z,2.30
2019-02-06T07:48:35.944Z,2.40
2019-02-06T07:51:07.391Z,2.30
2019-02-06T07:53:40.065Z,2.30
2019-02-06T07:56:11.328Z,2.30
2019-02-06T07:58:43.074Z,2.30
2019-02-06T08:01:14.436Z,2.30
2019-02-06T08:03:45.963Z,2.20
2019-02-06T08:06:17.321Z,2.20
2019-02-06T08:08:48.749Z,2.20
2019-02-06T08:11:20.190Z,2.20
2019-02-06T08:13:51.594Z,2.20
2019-02-06T08:16:22.942Z,2.30
2019-02-06T08:18:55.317Z,2.30
2019-02-06T08:21:26.757Z,2.30
2019-02-06T08:23:58.155Z,2.30
2019-02-06T08:26:29.512Z,2.30
2019-02-06T08:29:00.910Z,2.20
2019-02-06T08:31:32.256Z,2.20
2019-02-06T08:34:03.652Z,2.30
2019-02-06T08:36:35.000Z,2.30
2019-02-06T08:39:08.689Z,2.30
2019-02-06T08:41:40.056Z,2.30
2019-02-06T08:44:11.462Z,2.30
2019-02-06T08:46:42.841Z,2.30
2019-02-06T08:49:14.349Z,2.40
2019-02-06T08:51:45.765Z,2.40
2019-02-06T08:54:20.178Z,2.40
2019-02-06T08:56:50.286Z,2.40
2019-02-06T08:59:22.602Z,2.40
2019-02-06T09:01:53.973Z,2.50
2019-02-06T09:04:25.400Z,2.40
2019-02-06T09:06:56.744Z,2.40
2019-02-06T09:09:28.145Z,2.50
2019-02-06T09:11:59.504Z,2.50
2019-02-06T09:14:31.800Z,2.60
2019-02-06T09:17:03.427Z,2.60
2019-02-06T09:19:35.825Z,2.60
2019-02-06T09:22:07.184Z,2.60
2019-02-06T09:24:38.561Z,2.70
2019-02-06T09:27:10.099Z,2.70
2019-02-06T09:29:41.636Z,2.70
2019-02-06T09:32:13.013Z,2.80
2019-02-06T09:34:44.434Z,2.80
2019-02-06T09:37:15.817Z,2.90
2019-02-06T09:39:47.196Z,2.90
2019-02-06T09:42:18.958Z,2.90
2019-02-06T09:44:50.353Z,3.00
2019-02-06T09:47:21.749Z,3.00
2019-02-06T09:49:53.197Z,3.00
2019-02-06T09:52:28.120Z,3.10
2019-02-06T09:54:57.765Z,3.20
2019-02-06T09:57:29.116Z,3.20
2019-02-06T10:00:00.668Z,3.30
2019-02-06T10:02:32.039Z,3.30
2019-02-06T10:05:03.580Z,3.40
2019-02-06T10:07:34.974Z,3.40
2019-02-06T10:10:08.792Z,3.50
2019-02-06T10:12:40.143Z,3.50
2019-02-06T10:15:13.298Z,3.50
2019-02-06T10:17:44.714Z,3.60
2019-02-06T10:20:16.788Z,3.60
2019-02-06T10:22:48.235Z,3.50
2019-02-06T10:25:19.717Z,3.60
2019-02-06T10:27:51.080Z,3.70
2019-02-06T10:30:36.966Z,3.70
2019-02-06T10:33:08.324Z,3.80
2019-02-06T10:35:39.772Z,3.90
2019-02-06T10:38:11.496Z,4.00
2019-02-06T10:40:42.877Z,4.10
2019-02-06T10:43:14.232Z,4.20
2019-02-06T10:45:45.765Z,4.30
2019-02-06T10:48:17.210Z,4.40
2019-02-06T10:50:50.844Z,4.60
2019-02-06T10:53:22.293Z,4.80
2019-02-06T10:55:53.697Z,5.00
2019-02-06T10:58:25.083Z,5.20
2019-02-06T11:00:59.149Z,5.40
2019-02-06T11:03:30.513Z,5.70
2019-02-06T11:06:02.865Z,6.20
2019-02-06T11:08:34.286Z,6.60
2019-02-06T11:11:05.845Z,7.00
2019-02-06T11:13:37.209Z,7.20
2019-02-06T11:16:08.650Z,7.50
2019-02-06T11:18:40.150Z,7.80
2019-02-06T11:21:11.700Z,7.90
2019-02-06T11:23:43.545Z,8.10
2019-02-06T11:26:15.053Z,8.20
2019-02-06T11:28:46.419Z,8.20
2019-02-06T11:31:17.845Z,8.20
2019-02-06T11:33:49.244Z,8.10
2019-02-06T11:36:24.303Z,8.00
2019-02-06T11:38:55.005Z,7.90
2019-02-06T11:41:26.372Z,7.90
2019-02-06T11:43:57.790Z,7.80
2019-02-06T11:46:29.221Z,7.50
2019-02-06T11:49:00.869Z,7.30
2019-02-06T11:51:32.246Z,7.20
2019-02-06T11:54:03.630Z,7.20
2019-02-06T11:56:34.933Z,7.20
2019-02-06T11:59:06.319Z,7.20
2019-02-06T12:01:48.758Z,7.20
2019-02-06T12:04:20.061Z,7.20
2019-02-06T12:06:51.601Z,7.20
2019-02-06T12:09:23.008Z,7.20
2019-02-06T12:11:54.471Z,7.20
2019-02-06T12:14:25.839Z,7.20
2019-02-06T12:16:57.256Z,7.30
2019-02-06T12:19:28.542Z,7.40
2019-02-06T12:22:00.039Z,7.50
2019-02-06T12:24:31.788Z,7.80
2019-02-06T12:27:03.706Z,8.20
2019-02-06T12:29:35.100Z,8.70
2019-02-06T12:32:07.072Z,9.30
2019-02-06T12:34:38.421Z,9.70
2019-02-06T12:37:09.846Z,10.30
2019-02-06T12:39:41.500Z,10.90
2019-02-06T12:42:13.089Z,11.60
2019-02-06T12:44:44.520Z,12.20
2019-02-06T12:47:16.211Z,12.80
2019-02-06T12:49:47.856Z,13.30
2019-02-06T12:52:19.257Z,13.70
2019-02-06T12:54:50.904Z,14.10
2019-02-06T12:57:22.238Z,14.40
2019-02-06T12:59:53.614Z,14.50
2019-02-06T13:02:25.359Z,14.40
2019-02-06T13:04:56.812Z,14.30
2019-02-06T13:07:29.850Z,14.20
2019-02-06T13:10:01.250Z,13.90
2019-02-06T13:12:32.663Z,13.60
2019-02-06T13:15:04.613Z,13.20
2019-02-06T13:17:36.515Z,12.90
2019-02-06T13:20:11.345Z,12.70
2019-02-06T13:22:42.771Z,12.40
2019-02-06T13:25:14.357Z,11.90
2019-02-06T13:27:46.074Z,11.40
2019-02-06T13:30:28.633Z,11.00
2019-02-06T13:33:00.349Z,10.60
2019-02-06T13:35:32.024Z,10.20
2019-02-06T13:38:04.602Z,9.80
2019-02-06T13:40:45.275Z,9.50
2019-02-06T13:43:09.233Z,9.10
2019-02-06T13:45:43.142Z,8.80
2019-02-06T13:48:14.564Z,8.50
2019-02-06T13:50:46.045Z,8.20
2019-02-06T13:53:17.428Z,8.00
2019-02-06T13:55:49.155Z,7.60
2019-02-06T13:58:20.741Z,7.50
2019-02-06T14:00:53.208Z,7.30
2019-02-06T14:03:25.572Z,7.10
2019-02-06T14:05:57.106Z,6.90
2019-02-06T14:08:29.099Z,6.70
2019-02-06T14:11:01.543Z,6.50
2019-02-06T14:13:32.965Z,6.40
2019-02-06T14:16:05.820Z,6.30
2019-02-06T14:18:37.225Z,6.20
2019-02-06T14:21:08.973Z,6.20
2019-02-06T14:24:02.241Z,6.10
2019-02-06T14:27:03.729Z,6.00
2019-02-06T14:30:09.369Z,5.90
2019-02-06T14:33:10.985Z,5.80
2019-02-06T14:36:26.543Z,5.70
2019-02-06T14:39:43.413Z,5.60
2019-02-06T14:42:40.504Z,5.50
2019-02-06T14:45:43.748Z,5.40
2019-02-06T14:48:43.821Z,5.30
2019-02-06T14:51:42.189Z,5.30
2019-02-06T14:54:44.784Z,5.20
2019-02-06T14:57:32.713Z,5.10
2019-02-06T15:00:41.143Z,5.00
2019-02-06T15:03:50.789Z,5.00
2019-02-06T15:06:49.377Z,4.90
2019-02-06T15:10:00.402Z,4.90
2019-02-06T15:13:16.154Z,4.80
2019-02-06T15:16:25.532Z,4.80
2019-02-06T15:19:32.330Z,4.70
2019-02-06T15:22:43.969Z,4.70
2019-02-06T15:26:02.433Z,4.60
2019-02-06T15:29:09.720Z,4.50
2019-02-06T15:32:14.419Z,4.40
2019-02-06T15:35:15.262Z,4.30
2019-02-06T15:38:09.651Z,4.20
2019-02-06T15:41:31.116Z,4.00
2019-02-06T15:44:26.113Z,4.00
2019-02-06T15:47:29.645Z,3.80
2019-02-06T15:50:26.751Z,3.70
2019-02-06T15:53:23.557Z,3.60
2019-02-06T15:57:06.238Z,3.60
2019-02-06T16:00:16.522Z,3.50
2019-02-06T16:03:14.753Z,3.40
2019-02-06T16:06:16.581Z,3.30
2019-02-06T16:09:16.781Z,3.20
2019-02-06T16:12:17.416Z,3.20
2019-02-06T16:15:39.527Z,3.10
2019-02-06T16:18:44.232Z,3.00
2019-02-06T16:21:38.333Z,3.00
2019-02-06T16:24:34.312Z,2.80
2019-02-06T16:27:40.077Z,2.70
2019-02-06T16:30:58.433Z,2.70
2019-02-06T16:34:19.736Z,2.60
2019-02-06T16:37:03.930Z,2.50
2019-02-06T16:39:59.196Z,2.40
2019-02-06T16:42:58.956Z,2.40
2019-02-06T16:46:20.297Z,2.40
2019-02-06T16:49:13.394Z,2.30
2019-02-06T16:52:25.373Z,2.30
2019-02-06T16:55:52.913Z,2.20
2019-02-06T16:58:38.782Z,2.10
2019-02-06T17:01:36.449Z,2.10
2019-02-06T17:04:44.872Z,2.10
2019-02-06T17:07:58.837Z,2.10
2019-02-06T17:11:09.809Z,2.10
2019-02-06T17:14:19.436Z,2.10
2019-02-06T17:17:19.784Z,2.10
2019-02-06T17:20:26.612Z,2.10
2019-02-06T17:23:40.684Z,2.10
2019-02-06T17:26:47.560Z,2.20
2019-02-06T17:30:03.204Z,2.20
2019-02-06T17:33:10.759Z,2.30
2019-02-06T17:36:07.921Z,2.20
2019-02-06T17:39:32.463Z,2.30
2019-02-06T17:42:30.890Z,2.30
2019-02-06T17:45:40.853Z,2.30
2019-02-06T17:49:08.278Z,2.30
2019-02-06T17:52:23.760Z,2.30
2019-02-06T17:55:19.889Z,2.40
2019-02-06T17:57:53.759Z,2.40
2019-02-06T18:00:43.342Z,2.40
2019-02-06T18:03:15.078Z,2.40
2019-02-06T18:05:47.761Z,2.30
2019-02-06T18:08:21.112Z,2.20
2019-02-06T18:10:52.689Z,2.20
2019-02-06T18:13:24.630Z,2.20
2019-02-06T18:15:57.293Z,2.10
2019-02-06T18:18:29.125Z,2.00
2019-02-06T18:21:00.535Z,2.00
2019-02-06T18:23:32.049Z,2.00
2019-02-06T18:26:03.601Z,2.00
2019-02-06T18:28:36.606Z,2.00
2019-02-06T18:31:08.104Z,1.90
2019-02-06T18:33:39.396Z,1.90
2019-02-06T18:36:10.838Z,1.90
2019-02-06T18:38:46.693Z,1.90
2019-02-06T18:41:15.562Z,1.90
2019-02-06T18:43:46.949Z,1.90
2019-02-06T18:46:18.877Z,1.90
2019-02-06T18:48:50.440Z,1.90
2019-02-06T18:51:22.004Z,1.90
2019-02-06T18:53:53.361Z,1.90
2019-02-06T18:56:24.683Z,1.90
2019-02-06T18:58:56.380Z,1.90
2019-02-06T19:01:28.347Z,1.90
2019-02-06T19:03:59.783Z,1.90
2019-02-06T19:06:31.252Z,1.90
2019-02-06T19:09:02.680Z,1.80
2019-02-06T19:11:34.453Z,1.80
2019-02-06T19:14:06.080Z,1.80
2019-02-06T19:16:37.609Z,1.80
2019-02-06T19:19:08.976Z,1.80
2019-02-06T19:21:40.392Z,1.80
2019-02-06T19:24:11.764Z,1.70
2019-02-06T19:26:43.237Z,1.60
2019-02-06T19:29:14.582Z,1.60
2019-02-06T19:31:46.384Z,1.50
2019-02-06T19:34:17.883Z,1.50
2019-02-06T19:36:49.364Z,1.50
2019-02-06T19:39:20.879Z,1.50
2019-02-06T19:41:52.697Z,1.50
2019-02-06T19:44:24.062Z,1.50
2019-02-06T19:46:55.513Z,1.50
2019-02-06T19:49:28.028Z,1.50
2019-02-06T19:52:01.222Z,1.50
2019-02-06T19:54:34.033Z,1.50
2019-02-06T19:57:06.146Z,1.50
2019-02-06T19:59:40.197Z,1.50
2019-02-06T20:02:12.733Z,1.50
2019-02-06T20:04:46.377Z,1.50
2019-02-06T20:07:19.708Z,1.50
2019-02-06T20:09:51.423Z,1.50
2019-02-06T20:12:25.977Z,1.50
2019-02-06T20:14:58.594Z,1.50
2019-02-06T20:17:29.960Z,1.40
2019-02-06T20:20:01.588Z,1.40
2019-02-06T20:22:33.132Z,1.40
2019-02-06T20:25:05.755Z,1.40
2019-02-06T20:27:37.257Z,1.40
2019-02-06T20:30:12.104Z,1.40
2019-02-06T20:32:43.713Z,1.50
2019-02-06T20:35:15.216Z,1.50
2019-02-06T20:37:46.718Z,1.50
2019-02-06T20:40:20.828Z,1.50
2019-02-06T20:42:52.228Z,1.40
2019-02-06T20:45:23.738Z,1.40
2019-02-06T20:47:55.324Z,1.40
2019-02-06T20:50:30.899Z,1.40
2019-02-06T20:53:04.426Z,1.40
2019-02-06T20:55:35.958Z,1.40
2019-02-06T20:58:07.384Z,1.50
2019-02-06T21:00:38.993Z,1.40
2019-02-06T21:03:10.581Z,1.40
2019-02-06T21:05:42.085Z,1.40
2019-02-06T21:08:14.073Z,1.40
2019-02-06T21:10:45.365Z,1.40
2019-02-06T21:13:19.001Z,1.40
2019-02-06T21:15:50.309Z,1.30
2019-02-06T21:18:21.762Z,1.30
2019-02-06T21:20:53.076Z,1.30
2019-02-06T21:23:24.484Z,1.30
2019-02-06T21:25:55.856Z,1.30
2019-02-06T21:28:27.314Z,1.30
2019-02-06T21:30:58.568Z,1.30
2019-02-06T21:33:30.036Z,1.30
2019-02-06T21:36:01.383Z,1.30
2019-02-06T21:38:32.912Z,1.30
2019-02-06T21:41:04.398Z,1.30
2019-02-06T21:43:43.916Z,1.20
2019-02-06T21:46:09.085Z,1.20
2019-02-06T21:48:40.689Z,1.20
2019-02-06T21:51:12.194Z,1.20
2019-02-06T21:53:44.613Z,1.20
2019-02-06T21:56:16.020Z,1.20
2019-02-06T21:58:47.722Z,1.20
2019-02-06T22:01:22.509Z,1.20
2019-02-06T22:03:54.057Z,1.20
2019-02-06T22:06:25.630Z,1.20
2019-02-06T22:08:56.986Z,1.30
2019-02-06T22:11:28.504Z,1.30
2019-02-06T22:14:00.298Z,1.30
2019-02-06T22:16:33.021Z,1.40
2019-02-06T22:19:05.636Z,1.40
2019-02-06T22:21:37.385Z,1.40
2019-02-06T22:24:10.148Z,1.40
2019-02-06T22:26:42.195Z,1.40
2019-02-06T22:29:13.770Z,1.40
2019-02-06T22:31:45.231Z,1.30
2019-02-06T22:34:17.216Z,1.30
2019-02-06T22:36:48.622Z,1.30
2019-02-06T22:39:20.088Z,1.30
2019-02-06T22:41:51.591Z,1.30
2019-02-06T22:44:23.160Z,1.30
2019-02-06T22:46:54.909Z,1.30
2019-02-06T22:49:26.332Z,1.30
2019-02-06T22:51:57.636Z,1.30
2019-02-06T22:54:29.909Z,1.30
2019-02-06T22:57:01.264Z,1.30
2019-02-06T22:59:33.054Z,1.30
2019-02-06T23:02:05.312Z,1.20
2019-02-06T23:04:36.777Z,1.20
2019-02-06T23:07:08.303Z,1.10
2019-02-06T23:09:39.632Z,1.10
2019-02-06T23:12:11.288Z,1.00
2019-02-06T23:14:42.696Z,1.00
2019-02-06T23:17:14.093Z,1.00
2019-02-06T23:19:45.532Z,1.00
2019-02-06T23:22:16.889Z,1.00
2019-02-06T23:24:48.666Z,0.90
2019-02-06T23:27:20.097Z,0.90
2019-02-06T23:29:51.505Z,0.80
2019-02-06T23:32:22.878Z,0.80
2019-02-06T23:34:55.181Z,0.80
2019-02-06T23:37:26.681Z,0.80
2019-02-06T23:39:58.064Z,0.80
2019-02-06T23:42:29.416Z,0.80
2019-02-06T23:45:00.701Z,0.70
2019-02-06T23:47:32.056Z,0.70
2019-02-06T23:50:03.940Z,0.70
2019-02-06T23:52:36.264Z,0.70
2019-02-06T23:55:08.592Z,0.70
2019-02-06T23:57:39.967Z,0.70
